sensor_id;sensor_type;location;lat;lon;timestamp;P1;durP1;ratioP1;P2;durP2;ratioP2
11054;SDS011;5580;50.106;8.702;2023-02-08T00:01:20;27.17;;;16.80;;
11054;SDS011;5580;50.106;8.702;2023-02-08T00:03:49;28.40;;;16.57;;
11054;SDS011;5580;50.106;8.702;2023-02-08T00:06:15;25.37;;;15.40;;
11054;SDS011;5580;50.106;8.702;2023-02-08T00:08:41;25.67;;;15.13;;
11054;SDS011;5580;50.106;8.702;2023-02-08T00:11:06;29.80;;;16.40;;
11054;SDS011;5580;50.106;8.702;2023-02-08T00:13:34;26.17;;;16.23;;
11054;SDS011;5580;50.106;8.702;2023-02-08T00:16:01;26.47;;;15.93;;
11054;SDS011;5580;50.106;8.702;2023-02-08T00:18:26;26.90;;;15.80;;
11054;SDS011;5580;50.106;8.702;2023-02-08T00:20:52;27.73;;;16.10;;
11054;SDS011;5580;50.106;8.702;2023-02-08T00:23:19;25.87;;;16.37;;
11054;SDS011;5580;50.106;8.702;2023-02-08T00:25:45;27.00;;;16.30;;
11054;SDS011;5580;50.106;8.702;2023-02-08T00:28:12;26.33;;;16.20;;
11054;SDS011;5580;50.106;8.702;2023-02-08T00:30:38;25.03;;;15.20;;
11054;SDS011;5580;50.106;8.702;2023-02-08T00:33:05;25.17;;;15.77;;
11054;SDS011;5580;50.106;8.702;2023-02-08T00:35:30;28.97;;;17.07;;
11054;SDS011;5580;50.106;8.702;2023-02-08T00:37:56;25.17;;;16.03;;
11054;SDS011;5580;50.106;8.702;2023-02-08T00:40:22;26.53;;;15.77;;
11054;SDS011;5580;50.106;8.702;2023-02-08T00:42:48;28.23;;;17.10;;
11054;SDS011;5580;50.106;8.702;2023-02-08T00:45:14;27.57;;;16.17;;
11054;SDS011;5580;50.106;8.702;2023-02-08T00:47:40;26.03;;;16.27;;
11054;SDS011;5580;50.106;8.702;2023-02-08T00:50:06;28.47;;;16.20;;
11054;SDS011;5580;50.106;8.702;2023-02-08T00:52:32;26.23;;;15.93;;
11054;SDS011;5580;50.106;8.702;2023-02-08T00:54:57;25.90;;;15.33;;
11054;SDS011;5580;50.106;8.702;2023-02-08T00:57:23;25.63;;;15.17;;
11054;SDS011;5580;50.106;8.702;2023-02-08T00:59:49;25.67;;;15.10;;
11054;SDS011;5580;50.106;8.702;2023-02-08T01:02:14;27.20;;;16.57;;
11054;SDS011;5580;50.106;8.702;2023-02-08T01:04:42;24.87;;;15.30;;
11054;SDS011;5580;50.106;8.702;2023-02-08T01:07:08;24.80;;;15.40;;
11054;SDS011;5580;50.106;8.702;2023-02-08T01:09:34;25.70;;;15.30;;
11054;SDS011;5580;50.106;8.702;2023-02-08T01:11:59;24.90;;;15.10;;
11054;SDS011;5580;50.106;8.702;2023-02-08T01:14:25;25.37;;;15.60;;
11054;SDS011;5580;50.106;8.702;2023-02-08T01:16:51;23.67;;;14.63;;
11054;SDS011;5580;50.106;8.702;2023-02-08T01:19:17;24.60;;;15.33;;
11054;SDS011;5580;50.106;8.702;2023-02-08T01:21:43;27.10;;;15.73;;
11054;SDS011;5580;50.106;8.702;2023-02-08T01:24:09;21.90;;;14.47;;
11054;SDS011;5580;50.106;8.702;2023-02-08T01:26:35;26.00;;;15.70;;
11054;SDS011;5580;50.106;8.702;2023-02-08T01:29:01;25.27;;;15.43;;
11054;SDS011;5580;50.106;8.702;2023-02-08T01:31:29;24.67;;;14.60;;
11054;SDS011;5580;50.106;8.702;2023-02-08T01:33:57;26.37;;;15.20;;
11054;SDS011;5580;50.106;8.702;2023-02-08T01:36:24;24.43;;;14.70;;
11054;SDS011;5580;50.106;8.702;2023-02-08T01:38:51;22.77;;;14.37;;
11054;SDS011;5580;50.106;8.702;2023-02-08T01:41:18;27.67;;;15.67;;
11054;SDS011;5580;50.106;8.702;2023-02-08T01:46:32;26.27;;;15.50;;
11054;SDS011;5580;50.106;8.702;2023-02-08T01:49:02;27.60;;;15.90;;
11054;SDS011;5580;50.106;8.702;2023-02-08T01:54:39;28.17;;;15.70;;
11054;SDS011;5580;50.106;8.702;2023-02-08T01:57:10;26.50;;;16.17;;
11054;SDS011;5580;50.106;8.702;2023-02-08T01:59:45;28.23;;;16.13;;
11054;SDS011;5580;50.106;8.702;2023-02-08T02:02:15;28.67;;;16.30;;
11054;SDS011;5580;50.106;8.702;2023-02-08T02:04:43;26.33;;;15.70;;
11054;SDS011;5580;50.106;8.702;2023-02-08T02:07:09;27.07;;;15.77;;
11054;SDS011;5580;50.106;8.702;2023-02-08T02:09:41;24.10;;;15.60;;
11054;SDS011;5580;50.106;8.702;2023-02-08T02:12:21;25.60;;;15.90;;
11054;SDS011;5580;50.106;8.702;2023-02-08T02:14:47;24.97;;;14.80;;
11054;SDS011;5580;50.106;8.702;2023-02-08T02:17:13;25.23;;;15.70;;
11054;SDS011;5580;50.106;8.702;2023-02-08T02:33:50;25.20;;;15.00;;
11054;SDS011;5580;50.106;8.702;2023-02-08T02:36:46;25.73;;;15.07;;
11054;SDS011;5580;50.106;8.702;2023-02-08T02:45:45;23.10;;;14.43;;
11054;SDS011;5580;50.106;8.702;2023-02-08T02:50:47;24.70;;;15.50;;
11054;SDS011;5580;50.106;8.702;2023-02-08T02:55:48;25.00;;;15.20;;
11054;SDS011;5580;50.106;8.702;2023-02-08T02:58:19;25.03;;;14.97;;
11054;SDS011;5580;50.106;8.702;2023-02-08T03:00:53;26.70;;;15.63;;
11054;SDS011;5580;50.106;8.702;2023-02-08T03:03:27;25.50;;;15.70;;
11054;SDS011;5580;50.106;8.702;2023-02-08T03:06:17;25.87;;;15.53;;
11054;SDS011;5580;50.106;8.702;2023-02-08T03:11:55;25.37;;;15.43;;
11054;SDS011;5580;50.106;8.702;2023-02-08T03:14:33;25.93;;;15.23;;
11054;SDS011;5580;50.106;8.702;2023-02-08T03:24:58;24.17;;;15.03;;
11054;SDS011;5580;50.106;8.702;2023-02-08T03:27:44;24.47;;;15.00;;
11054;SDS011;5580;50.106;8.702;2023-02-08T03:33:36;24.17;;;14.90;;
11054;SDS011;5580;50.106;8.702;2023-02-08T03:36:16;25.43;;;15.83;;
11054;SDS011;5580;50.106;8.702;2023-02-08T03:38:48;25.13;;;15.57;;
11054;SDS011;5580;50.106;8.702;2023-02-08T03:41:16;25.57;;;15.30;;
11054;SDS011;5580;50.106;8.702;2023-02-08T03:43:54;24.97;;;15.30;;
11054;SDS011;5580;50.106;8.702;2023-02-08T03:46:28;25.87;;;15.00;;
11054;SDS011;5580;50.106;8.702;2023-02-08T03:49:05;26.20;;;15.33;;
11054;SDS011;5580;50.106;8.702;2023-02-08T03:51:33;28.33;;;16.50;;
11054;SDS011;5580;50.106;8.702;2023-02-08T03:54:00;26.60;;;16.87;;
11054;SDS011;5580;50.106;8.702;2023-02-08T03:56:32;24.97;;;16.00;;
11054;SDS011;5580;50.106;8.702;2023-02-08T03:59:03;26.03;;;15.60;;
11054;SDS011;5580;50.106;8.702;2023-02-08T04:01:37;26.97;;;15.70;;
11054;SDS011;5580;50.106;8.702;2023-02-08T04:04:12;25.67;;;14.87;;
11054;SDS011;5580;50.106;8.702;2023-02-08T04:06:39;28.00;;;15.50;;
11054;SDS011;5580;50.106;8.702;2023-02-08T04:09:05;24.70;;;15.37;;
11054;SDS011;5580;50.106;8.702;2023-02-08T04:11:30;24.50;;;14.63;;
11054;SDS011;5580;50.106;8.702;2023-02-08T04:13:56;24.67;;;15.10;;
11054;SDS011;5580;50.106;8.702;2023-02-08T04:16:21;23.67;;;14.73;;
11054;SDS011;5580;50.106;8.702;2023-02-08T04:18:47;25.03;;;15.53;;
11054;SDS011;5580;50.106;8.702;2023-02-08T04:21:12;25.63;;;15.53;;
11054;SDS011;5580;50.106;8.702;2023-02-08T04:23:38;26.83;;;15.20;;
11054;SDS011;5580;50.106;8.702;2023-02-08T04:26:03;25.23;;;15.23;;
11054;SDS011;5580;50.106;8.702;2023-02-08T04:28:31;25.53;;;14.97;;
11054;SDS011;5580;50.106;8.702;2023-02-08T04:30:57;25.60;;;15.53;;
11054;SDS011;5580;50.106;8.702;2023-02-08T04:33:22;27.47;;;14.87;;
11054;SDS011;5580;50.106;8.702;2023-02-08T04:35:48;32.50;;;15.57;;
11054;SDS011;5580;50.106;8.702;2023-02-08T04:38:13;24.00;;;15.10;;
11054;SDS011;5580;50.106;8.702;2023-02-08T04:40:39;28.37;;;15.07;;
11054;SDS011;5580;50.106;8.702;2023-02-08T04:43:04;29.00;;;16.00;;
11054;SDS011;5580;50.106;8.702;2023-02-08T04:45:30;23.43;;;14.60;;
11054;SDS011;5580;50.106;8.702;2023-02-08T04:47:57;27.53;;;15.10;;
11054;SDS011;5580;50.106;8.702;2023-02-08T04:50:24;26.53;;;15.70;;
11054;SDS011;5580;50.106;8.702;2023-02-08T04:52:50;27.77;;;15.07;;
11054;SDS011;5580;50.106;8.702;2023-02-08T04:55:16;24.53;;;14.70;;
11054;SDS011;5580;50.106;8.702;2023-02-08T04:57:41;27.30;;;14.70;;
11054;SDS011;5580;50.106;8.702;2023-02-08T05:00:07;27.67;;;15.43;;
11054;SDS011;5580;50.106;8.702;2023-02-08T05:02:33;30.00;;;15.63;;
11054;SDS011;5580;50.106;8.702;2023-02-08T05:04:58;28.27;;;14.93;;
11054;SDS011;5580;50.106;8.702;2023-02-08T05:07:24;26.07;;;15.27;;
11054;SDS011;5580;50.106;8.702;2023-02-08T05:09:49;29.83;;;16.60;;
11054;SDS011;5580;50.106;8.702;2023-02-08T05:12:15;29.90;;;16.17;;
11054;SDS011;5580;50.106;8.702;2023-02-08T05:14:40;24.07;;;14.70;;
11054;SDS011;5580;50.106;8.702;2023-02-08T05:17:06;25.80;;;14.70;;
11054;SDS011;5580;50.106;8.702;2023-02-08T05:19:32;25.57;;;15.20;;
11054;SDS011;5580;50.106;8.702;2023-02-08T05:21:58;24.47;;;15.10;;
11054;SDS011;5580;50.106;8.702;2023-02-08T05:24:24;27.97;;;15.10;;
11054;SDS011;5580;50.106;8.702;2023-02-08T05:26:50;27.07;;;14.70;;
11054;SDS011;5580;50.106;8.702;2023-02-08T05:29:16;28.17;;;15.37;;
11054;SDS011;5580;50.106;8.702;2023-02-08T05:31:41;30.30;;;14.97;;
11054;SDS011;5580;50.106;8.702;2023-02-08T05:34:07;29.77;;;15.43;;
11054;SDS011;5580;50.106;8.702;2023-02-08T05:36:33;31.23;;;15.53;;
11054;SDS011;5580;50.106;8.702;2023-02-08T05:38:58;25.27;;;14.70;;
11054;SDS011;5580;50.106;8.702;2023-02-08T05:41:24;27.97;;;15.60;;
11054;SDS011;5580;50.106;8.702;2023-02-08T05:43:49;36.27;;;16.37;;
11054;SDS011;5580;50.106;8.702;2023-02-08T05:46:15;30.27;;;14.80;;
11054;SDS011;5580;50.106;8.702;2023-02-08T05:48:41;32.00;;;15.57;;
11054;SDS011;5580;50.106;8.702;2023-02-08T05:51:06;29.20;;;15.07;;
11054;SDS011;5580;50.106;8.702;2023-02-08T05:53:32;31.00;;;15.60;;
11054;SDS011;5580;50.106;8.702;2023-02-08T05:55:58;29.37;;;14.67;;
11054;SDS011;5580;50.106;8.702;2023-02-08T05:58:24;26.80;;;15.07;;
11054;SDS011;5580;50.106;8.702;2023-02-08T06:00:50;27.60;;;14.67;;
11054;SDS011;5580;50.106;8.702;2023-02-08T06:03:17;25.87;;;14.87;;
11054;SDS011;5580;50.106;8.702;2023-02-08T06:05:42;22.80;;;13.87;;
11054;SDS011;5580;50.106;8.702;2023-02-08T06:08:08;26.37;;;14.03;;
11054;SDS011;5580;50.106;8.702;2023-02-08T06:10:34;22.73;;;14.17;;
11054;SDS011;5580;50.106;8.702;2023-02-08T06:13:00;24.27;;;13.50;;
11054;SDS011;5580;50.106;8.702;2023-02-08T06:15:26;25.40;;;13.40;;
11054;SDS011;5580;50.106;8.702;2023-02-08T06:17:51;23.07;;;13.77;;
11054;SDS011;5580;50.106;8.702;2023-02-08T06:20:17;25.43;;;13.43;;
11054;SDS011;5580;50.106;8.702;2023-02-08T06:22:43;24.23;;;13.53;;
11054;SDS011;5580;50.106;8.702;2023-02-08T06:25:08;26.60;;;14.50;;
11054;SDS011;5580;50.106;8.702;2023-02-08T06:27:34;26.47;;;14.30;;
11054;SDS011;5580;50.106;8.702;2023-02-08T06:30:00;23.87;;;13.30;;
11054;SDS011;5580;50.106;8.702;2023-02-08T06:32:26;25.17;;;13.20;;
11054;SDS011;5580;50.106;8.702;2023-02-08T06:34:51;26.50;;;14.13;;
11054;SDS011;5580;50.106;8.702;2023-02-08T06:37:17;26.03;;;13.53;;
11054;SDS011;5580;50.106;8.702;2023-02-08T06:39:43;25.83;;;13.23;;
11054;SDS011;5580;50.106;8.702;2023-02-08T06:42:09;27.60;;;13.53;;
11054;SDS011;5580;50.106;8.702;2023-02-08T06:44:35;22.70;;;12.70;;
11054;SDS011;5580;50.106;8.702;2023-02-08T06:47:00;33.17;;;13.20;;
11054;SDS011;5580;50.106;8.702;2023-02-08T06:49:26;25.57;;;13.93;;
11054;SDS011;5580;50.106;8.702;2023-02-08T06:51:52;26.87;;;13.47;;
11054;SDS011;5580;50.106;8.702;2023-02-08T06:54:17;21.00;;;12.53;;
11054;SDS011;5580;50.106;8.702;2023-02-08T06:56:43;23.67;;;13.30;;
11054;SDS011;5580;50.106;8.702;2023-02-08T06:59:08;23.33;;;12.60;;
11054;SDS011;5580;50.106;8.702;2023-02-08T07:01:34;24.37;;;12.33;;
11054;SDS011;5580;50.106;8.702;2023-02-08T07:04:00;23.47;;;12.73;;
11054;SDS011;5580;50.106;8.702;2023-02-08T07:06:25;23.37;;;12.67;;
11054;SDS011;5580;50.106;8.702;2023-02-08T07:08:51;23.97;;;13.03;;
11054;SDS011;5580;50.106;8.702;2023-02-08T07:11:17;22.40;;;12.13;;
11054;SDS011;5580;50.106;8.702;2023-02-08T07:13:48;23.47;;;12.73;;
11054;SDS011;5580;50.106;8.702;2023-02-08T07:16:14;22.77;;;13.13;;
11054;SDS011;5580;50.106;8.702;2023-02-08T07:18:41;23.30;;;12.73;;
11054;SDS011;5580;50.106;8.702;2023-02-08T07:21:07;22.07;;;12.53;;
11054;SDS011;5580;50.106;8.702;2023-02-08T07:23:33;23.77;;;12.67;;
11054;SDS011;5580;50.106;8.702;2023-02-08T07:26:04;24.13;;;12.50;;
11054;SDS011;5580;50.106;8.702;2023-02-08T07:28:32;24.63;;;12.77;;
11054;SDS011;5580;50.106;8.702;2023-02-08T07:30:58;20.27;;;11.77;;
11054;SDS011;5580;50.106;8.702;2023-02-08T07:33:23;25.77;;;12.67;;
11054;SDS011;5580;50.106;8.702;2023-02-08T07:35:50;22.03;;;12.57;;
11054;SDS011;5580;50.106;8.702;2023-02-08T07:38:15;22.67;;;12.47;;
11054;SDS011;5580;50.106;8.702;2023-02-08T07:40:42;21.80;;;12.47;;
11054;SDS011;5580;50.106;8.702;2023-02-08T07:43:08;21.50;;;12.63;;
11054;SDS011;5580;50.106;8.702;2023-02-08T07:45:36;27.00;;;12.90;;
11054;SDS011;5580;50.106;8.702;2023-02-08T07:48:02;23.80;;;12.40;;
11054;SDS011;5580;50.106;8.702;2023-02-08T07:50:27;23.73;;;13.10;;
11054;SDS011;5580;50.106;8.702;2023-02-08T07:52:53;21.00;;;11.93;;
11054;SDS011;5580;50.106;8.702;2023-02-08T07:55:18;28.63;;;13.00;;
11054;SDS011;5580;50.106;8.702;2023-02-08T07:57:45;24.50;;;13.37;;
11054;SDS011;5580;50.106;8.702;2023-02-08T08:00:12;24.50;;;13.17;;
11054;SDS011;5580;50.106;8.702;2023-02-08T08:02:39;26.63;;;12.87;;
11054;SDS011;5580;50.106;8.702;2023-02-08T08:05:05;22.93;;;12.67;;
11054;SDS011;5580;50.106;8.702;2023-02-08T08:07:31;25.23;;;13.13;;
11054;SDS011;5580;50.106;8.702;2023-02-08T08:09:58;23.53;;;12.17;;
11054;SDS011;5580;50.106;8.702;2023-02-08T08:12:23;24.03;;;12.57;;
11054;SDS011;5580;50.106;8.702;2023-02-08T08:14:49;23.40;;;12.93;;
11054;SDS011;5580;50.106;8.702;2023-02-08T08:17:15;25.17;;;12.90;;
11054;SDS011;5580;50.106;8.702;2023-02-08T08:19:42;25.63;;;12.40;;
11054;SDS011;5580;50.106;8.702;2023-02-08T08:22:08;22.33;;;11.97;;
11054;SDS011;5580;50.106;8.702;2023-02-08T08:24:33;21.33;;;11.57;;
11054;SDS011;5580;50.106;8.702;2023-02-08T08:27:00;20.33;;;11.77;;
11054;SDS011;5580;50.106;8.702;2023-02-08T08:29:26;20.70;;;12.47;;
11054;SDS011;5580;50.106;8.702;2023-02-08T08:31:52;23.90;;;12.40;;
11054;SDS011;5580;50.106;8.702;2023-02-08T08:34:18;23.33;;;11.83;;
11054;SDS011;5580;50.106;8.702;2023-02-08T08:36:43;22.27;;;11.20;;
11054;SDS011;5580;50.106;8.702;2023-02-08T08:39:09;20.37;;;11.53;;
11054;SDS011;5580;50.106;8.702;2023-02-08T08:41:35;20.13;;;11.93;;
11054;SDS011;5580;50.106;8.702;2023-02-08T08:44:01;24.97;;;12.03;;
11054;SDS011;5580;50.106;8.702;2023-02-08T08:46:27;25.17;;;12.30;;
11054;SDS011;5580;50.106;8.702;2023-02-08T08:48:53;23.93;;;12.30;;
11054;SDS011;5580;50.106;8.702;2023-02-08T08:51:18;23.40;;;12.63;;
11054;SDS011;5580;50.106;8.702;2023-02-08T08:53:44;25.97;;;13.00;;
11054;SDS011;5580;50.106;8.702;2023-02-08T08:56:10;23.47;;;11.50;;
11054;SDS011;5580;50.106;8.702;2023-02-08T08:58:35;24.03;;;12.37;;
11054;SDS011;5580;50.106;8.702;2023-02-08T09:01:01;21.63;;;12.80;;
11054;SDS011;5580;50.106;8.702;2023-02-08T09:03:27;24.77;;;12.10;;
11054;SDS011;5580;50.106;8.702;2023-02-08T09:05:53;23.10;;;11.37;;
11054;SDS011;5580;50.106;8.702;2023-02-08T09:08:19;23.23;;;11.00;;
11054;SDS011;5580;50.106;8.702;2023-02-08T09:10:44;20.27;;;11.50;;
11054;SDS011;5580;50.106;8.702;2023-02-08T09:13:10;21.73;;;11.83;;
11054;SDS011;5580;50.106;8.702;2023-02-08T09:15:43;22.07;;;11.10;;
11054;SDS011;5580;50.106;8.702;2023-02-08T09:18:10;19.40;;;10.67;;
11054;SDS011;5580;50.106;8.702;2023-02-08T09:20:38;25.60;;;11.70;;
11054;SDS011;5580;50.106;8.702;2023-02-08T09:23:04;26.03;;;12.23;;
11054;SDS011;5580;50.106;8.702;2023-02-08T09:25:30;21.10;;;11.63;;
11054;SDS011;5580;50.106;8.702;2023-02-08T09:27:57;23.33;;;12.27;;
11054;SDS011;5580;50.106;8.702;2023-02-08T09:30:23;20.80;;;11.60;;
11054;SDS011;5580;50.106;8.702;2023-02-08T09:32:48;21.17;;;11.40;;
11054;SDS011;5580;50.106;8.702;2023-02-08T09:35:14;21.53;;;11.93;;
11054;SDS011;5580;50.106;8.702;2023-02-08T09:37:40;21.67;;;12.13;;
11054;SDS011;5580;50.106;8.702;2023-02-08T09:40:05;23.83;;;11.93;;
11054;SDS011;5580;50.106;8.702;2023-02-08T09:42:36;21.63;;;11.93;;
11054;SDS011;5580;50.106;8.702;2023-02-08T09:48:15;23.10;;;12.43;;
11054;SDS011;5580;50.106;8.702;2023-02-08T09:50:52;21.97;;;11.83;;
11054;SDS011;5580;50.106;8.702;2023-02-08T09:53:28;22.50;;;12.63;;
11054;SDS011;5580;50.106;8.702;2023-02-08T09:55:59;23.70;;;11.73;;
11054;SDS011;5580;50.106;8.702;2023-02-08T09:58:31;22.63;;;11.47;;
11054;SDS011;5580;50.106;8.702;2023-02-08T10:01:24;19.27;;;11.90;;
11054;SDS011;5580;50.106;8.702;2023-02-08T10:04:05;23.17;;;12.87;;
11054;SDS011;5580;50.106;8.702;2023-02-08T10:06:36;23.57;;;12.70;;
11054;SDS011;5580;50.106;8.702;2023-02-08T10:09:03;23.97;;;12.20;;
11054;SDS011;5580;50.106;8.702;2023-02-08T10:11:38;23.13;;;13.10;;
11054;SDS011;5580;50.106;8.702;2023-02-08T10:17:42;20.97;;;12.20;;
11054;SDS011;5580;50.106;8.702;2023-02-08T10:34:37;22.47;;;12.77;;
11054;SDS011;5580;50.106;8.702;2023-02-08T10:39:44;27.47;;;13.00;;
11054;SDS011;5580;50.106;8.702;2023-02-08T10:42:15;25.57;;;12.87;;
11054;SDS011;5580;50.106;8.702;2023-02-08T10:47:43;22.33;;;13.53;;
11054;SDS011;5580;50.106;8.702;2023-02-08T10:50:27;22.70;;;13.20;;
11054;SDS011;5580;50.106;8.702;2023-02-08T10:53:02;24.07;;;13.00;;
11054;SDS011;5580;50.106;8.702;2023-02-08T10:55:29;22.70;;;12.60;;
11054;SDS011;5580;50.106;8.702;2023-02-08T10:57:58;22.00;;;12.87;;
11054;SDS011;5580;50.106;8.702;2023-02-08T11:00:26;23.63;;;13.10;;
11054;SDS011;5580;50.106;8.702;2023-02-08T11:02:54;27.33;;;12.53;;
11054;SDS011;5580;50.106;8.702;2023-02-08T11:08:03;25.30;;;12.80;;
11054;SDS011;5580;50.106;8.702;2023-02-08T11:10:30;21.83;;;11.87;;
11054;SDS011;5580;50.106;8.702;2023-02-08T11:13:06;22.53;;;11.07;;
11054;SDS011;5580;50.106;8.702;2023-02-08T11:15:45;23.27;;;12.33;;
11054;SDS011;5580;50.106;8.702;2023-02-08T11:20:52;22.23;;;12.10;;
11054;SDS011;5580;50.106;8.702;2023-02-08T11:23:24;22.83;;;12.17;;
11054;SDS011;5580;50.106;8.702;2023-02-08T11:25:54;20.27;;;12.27;;
11054;SDS011;5580;50.106;8.702;2023-02-08T11:28:39;27.97;;;13.53;;
11054;SDS011;5580;50.106;8.702;2023-02-08T11:31:11;24.83;;;12.47;;
11054;SDS011;5580;50.106;8.702;2023-02-08T11:36:28;24.40;;;12.87;;
11054;SDS011;5580;50.106;8.702;2023-02-08T11:38:55;21.87;;;11.30;;
11054;SDS011;5580;50.106;8.702;2023-02-08T11:41:22;23.90;;;12.33;;
11054;SDS011;5580;50.106;8.702;2023-02-08T11:43:55;21.53;;;12.27;;
11054;SDS011;5580;50.106;8.702;2023-02-08T11:46:25;22.30;;;11.80;;
11054;SDS011;5580;50.106;8.702;2023-02-08T11:48:53;24.33;;;12.07;;
11054;SDS011;5580;50.106;8.702;2023-02-08T11:51:30;20.10;;;11.87;;
11054;SDS011;5580;50.106;8.702;2023-02-08T11:53:56;26.87;;;12.03;;
11054;SDS011;5580;50.106;8.702;2023-02-08T11:56:28;21.80;;;12.47;;
11054;SDS011;5580;50.106;8.702;2023-02-08T11:58:59;21.73;;;11.80;;
11054;SDS011;5580;50.106;8.702;2023-02-08T12:01:41;20.50;;;11.33;;
11054;SDS011;5580;50.106;8.702;2023-02-08T12:04:09;23.00;;;11.00;;
11054;SDS011;5580;50.106;8.702;2023-02-08T12:12:10;20.73;;;10.60;;
11054;SDS011;5580;50.106;8.702;2023-02-08T12:20:46;21.57;;;10.40;;
11054;SDS011;5580;50.106;8.702;2023-02-08T12:28:38;16.70;;;9.57;;
11054;SDS011;5580;50.106;8.702;2023-02-08T12:32:13;17.83;;;9.90;;
11054;SDS011;5580;50.106;8.702;2023-02-08T12:40:21;18.30;;;9.87;;
11054;SDS011;5580;50.106;8.702;2023-02-08T12:54:09;18.33;;;10.47;;
11054;SDS011;5580;50.106;8.702;2023-02-08T12:56:48;22.43;;;9.60;;
11054;SDS011;5580;50.106;8.702;2023-02-08T12:59:20;14.80;;;8.80;;
11054;SDS011;5580;50.106;8.702;2023-02-08T13:01:58;16.17;;;8.90;;
11054;SDS011;5580;50.106;8.702;2023-02-08T13:04:31;14.30;;;7.63;;
11054;SDS011;5580;50.106;8.702;2023-02-08T13:07:03;16.17;;;8.40;;
11054;SDS011;5580;50.106;8.702;2023-02-08T13:09:51;14.90;;;8.50;;
11054;SDS011;5580;50.106;8.702;2023-02-08T13:12:39;15.70;;;7.90;;
11054;SDS011;5580;50.106;8.702;2023-02-08T13:15:15;17.73;;;8.50;;
11054;SDS011;5580;50.106;8.702;2023-02-08T13:17:50;15.30;;;8.23;;
11054;SDS011;5580;50.106;8.702;2023-02-08T13:22:44;17.23;;;8.17;;
11054;SDS011;5580;50.106;8.702;2023-02-08T13:25:30;16.07;;;8.10;;
11054;SDS011;5580;50.106;8.702;2023-02-08T13:28:03;14.83;;;7.33;;
11054;SDS011;5580;50.106;8.702;2023-02-08T13:30:32;15.73;;;7.57;;
11054;SDS011;5580;50.106;8.702;2023-02-08T13:33:04;16.53;;;7.87;;
11054;SDS011;5580;50.106;8.702;2023-02-08T13:35:38;13.17;;;7.47;;
11054;SDS011;5580;50.106;8.702;2023-02-08T13:46:12;17.10;;;7.80;;
11054;SDS011;5580;50.106;8.702;2023-02-08T13:48:44;14.53;;;7.83;;
11054;SDS011;5580;50.106;8.702;2023-02-08T13:51:42;18.13;;;7.73;;
11054;SDS011;5580;50.106;8.702;2023-02-08T13:56:42;15.17;;;7.70;;
11054;SDS011;5580;50.106;8.702;2023-02-08T14:04:53;13.50;;;7.37;;
11054;SDS011;5580;50.106;8.702;2023-02-08T14:07:43;12.60;;;7.30;;
11054;SDS011;5580;50.106;8.702;2023-02-08T14:10:20;13.90;;;7.83;;
11054;SDS011;5580;50.106;8.702;2023-02-08T14:13:06;13.73;;;7.13;;
11054;SDS011;5580;50.106;8.702;2023-02-08T14:19:19;15.20;;;7.33;;
11054;SDS011;5580;50.106;8.702;2023-02-08T14:24:23;15.87;;;7.33;;
11054;SDS011;5580;50.106;8.702;2023-02-08T14:29:55;13.83;;;7.23;;
11054;SDS011;5580;50.106;8.702;2023-02-08T14:32:25;12.90;;;7.17;;
11054;SDS011;5580;50.106;8.702;2023-02-08T14:35:01;17.57;;;7.47;;
11054;SDS011;5580;50.106;8.702;2023-02-08T14:37:32;14.53;;;6.90;;
11054;SDS011;5580;50.106;8.702;2023-02-08T14:45:30;15.03;;;7.57;;
11054;SDS011;5580;50.106;8.702;2023-02-08T14:50:49;12.63;;;7.03;;
11054;SDS011;5580;50.106;8.702;2023-02-08T14:53:42;12.33;;;7.10;;
11054;SDS011;5580;50.106;8.702;2023-02-08T14:56:14;13.87;;;6.93;;
11054;SDS011;5580;50.106;8.702;2023-02-08T14:58:49;12.07;;;6.37;;
11054;SDS011;5580;50.106;8.702;2023-02-08T15:01:41;16.37;;;7.10;;
11054;SDS011;5580;50.106;8.702;2023-02-08T15:04:07;14.70;;;6.67;;
11054;SDS011;5580;50.106;8.702;2023-02-08T15:09:05;13.83;;;7.47;;
11054;SDS011;5580;50.106;8.702;2023-02-08T15:11:51;13.70;;;7.00;;
11054;SDS011;5580;50.106;8.702;2023-02-08T15:14:23;16.07;;;7.20;;
11054;SDS011;5580;50.106;8.702;2023-02-08T15:16:49;17.00;;;7.23;;
11054;SDS011;5580;50.106;8.702;2023-02-08T15:19:28;15.47;;;6.93;;
11054;SDS011;5580;50.106;8.702;2023-02-08T15:24:56;11.73;;;6.50;;
11054;SDS011;5580;50.106;8.702;2023-02-08T15:27:26;12.23;;;6.97;;
11054;SDS011;5580;50.106;8.702;2023-02-08T15:29:53;15.27;;;7.50;;
11054;SDS011;5580;50.106;8.702;2023-02-08T15:32:20;13.30;;;6.93;;
11054;SDS011;5580;50.106;8.702;2023-02-08T15:34:54;13.83;;;6.80;;
11054;SDS011;5580;50.106;8.702;2023-02-08T15:37:22;14.10;;;7.37;;
11054;SDS011;5580;50.106;8.702;2023-02-08T15:39:58;14.53;;;7.10;;
11054;SDS011;5580;50.106;8.702;2023-02-08T15:42:25;14.23;;;7.40;;
11054;SDS011;5580;50.106;8.702;2023-02-08T15:44:53;14.40;;;7.23;;
11054;SDS011;5580;50.106;8.702;2023-02-08T15:47:26;13.97;;;7.27;;
11054;SDS011;5580;50.106;8.702;2023-02-08T15:49:54;17.67;;;7.43;;
11054;SDS011;5580;50.106;8.702;2023-02-08T15:52:27;15.37;;;7.13;;
11054;SDS011;5580;50.106;8.702;2023-02-08T15:54:55;16.63;;;7.23;;
11054;SDS011;5580;50.106;8.702;2023-02-08T15:57:27;16.23;;;7.87;;
11054;SDS011;5580;50.106;8.702;2023-02-08T16:00:03;14.27;;;7.60;;
11054;SDS011;5580;50.106;8.702;2023-02-08T16:02:38;14.93;;;7.73;;
11054;SDS011;5580;50.106;8.702;2023-02-08T16:05:27;15.97;;;7.90;;
11054;SDS011;5580;50.106;8.702;2023-02-08T16:07:52;14.00;;;7.50;;
11054;SDS011;5580;50.106;8.702;2023-02-08T16:10:23;13.67;;;7.40;;
11054;SDS011;5580;50.106;8.702;2023-02-08T16:12:53;17.67;;;8.20;;
11054;SDS011;5580;50.106;8.702;2023-02-08T16:15:39;14.67;;;7.60;;
11054;SDS011;5580;50.106;8.702;2023-02-08T16:21:16;16.90;;;7.50;;
11054;SDS011;5580;50.106;8.702;2023-02-08T16:23:54;16.07;;;7.87;;
11054;SDS011;5580;50.106;8.702;2023-02-08T16:27:23;15.60;;;7.77;;
11054;SDS011;5580;50.106;8.702;2023-02-08T16:29:35;17.37;;;7.20;;
11054;SDS011;5580;50.106;8.702;2023-02-08T16:34:42;16.30;;;7.83;;
11054;SDS011;5580;50.106;8.702;2023-02-08T16:37:17;16.80;;;7.67;;
11054;SDS011;5580;50.106;8.702;2023-02-08T16:40:03;14.10;;;8.20;;
11054;SDS011;5580;50.106;8.702;2023-02-08T16:42:47;14.53;;;7.97;;
11054;SDS011;5580;50.106;8.702;2023-02-08T16:45:15;13.73;;;7.27;;
11054;SDS011;5580;50.106;8.702;2023-02-08T16:50:17;12.73;;;7.00;;
11054;SDS011;5580;50.106;8.702;2023-02-08T16:52:49;14.07;;;7.80;;
11054;SDS011;5580;50.106;8.702;2023-02-08T16:55:19;16.13;;;8.00;;
11054;SDS011;5580;50.106;8.702;2023-02-08T16:57:52;17.33;;;8.10;;
11054;SDS011;5580;50.106;8.702;2023-02-08T17:02:56;14.97;;;7.60;;
11054;SDS011;5580;50.106;8.702;2023-02-08T17:05:23;15.63;;;7.77;;
11054;SDS011;5580;50.106;8.702;2023-02-08T17:08:00;15.20;;;8.57;;
11054;SDS011;5580;50.106;8.702;2023-02-08T17:10:29;15.20;;;8.63;;
11054;SDS011;5580;50.106;8.702;2023-02-08T17:12:57;15.53;;;8.33;;
11054;SDS011;5580;50.106;8.702;2023-02-08T17:15:23;15.97;;;8.50;;
11054;SDS011;5580;50.106;8.702;2023-02-08T17:17:50;15.90;;;8.87;;
11054;SDS011;5580;50.106;8.702;2023-02-08T17:22:47;17.00;;;8.70;;
11054;SDS011;5580;50.106;8.702;2023-02-08T17:25:13;18.40;;;9.50;;
11054;SDS011;5580;50.106;8.702;2023-02-08T17:27:44;17.90;;;9.43;;
11054;SDS011;5580;50.106;8.702;2023-02-08T17:32:51;15.07;;;8.70;;
11054;SDS011;5580;50.106;8.702;2023-02-08T17:35:18;17.47;;;9.57;;
11054;SDS011;5580;50.106;8.702;2023-02-08T17:37:47;18.37;;;10.37;;
11054;SDS011;5580;50.106;8.702;2023-02-08T17:40:14;17.63;;;9.77;;
11054;SDS011;5580;50.106;8.702;2023-02-08T17:42:40;18.47;;;9.13;;
11054;SDS011;5580;50.106;8.702;2023-02-08T17:45:06;20.37;;;9.83;;